Hlavní strana
METAR-TAF:

METAR-TAF

Letiště :

Ílám, Írán

zeměpisná šířka: 33-35-09N, zeměpisná délka: 046-24-20E, výška: 1334 m

Aktuální stav počasí

Zpráva byla vytvořena před 38 minutami, v 22:00 UTC
Západoseverozápadní vítr 4 kt
Teplota 25°C
Vlhkost vzduchu 19%
Tlak 1017 hPa
Viditelnost 10 km a více
Žádná oblačnost pod 1500 m, nevyskytují se cumulonimby.

METAR: OICI 222200Z 29004KT CAVOK 25/M00 Q1016 A3002

Čas: 03:08 (22:38 UTC)

Předpověď počasí

Zpráva byla vytvořena před 5 hodinami a 28 minutami, v 17:10 UTC
Předpověď platná od 22 v 18 UTC do 23 v 24 UTC
Západní vítr 8 kt
Viditelnost: 8000 m
Dočasný
od 23 v 09 UTC do 23 v 18 UTC
Západní vítr 18 kt

TAF: OICI 221710Z 2218/2324 28008KT 8000 NSC TEMPO 2309/2318 28018KT

Stav a předpovědi počasí z více než 4 000 letišť (zprávy METAR a TAF).

Červené a žluté tečky na mapě představují dostupné meteorologické stanice.

Když kurzor umístíte na tečku, zobrazí se název stanice.

Pak kliknutím zobrazíte stav a předpověď počasí.

Chcete-li změnit mapu, kliknutím na zelené tlačítko se znaménkem +mapu přiblížíte, kliknutím na zelené tlačítko se znaménkem – mapu oddálíte a kliknutím na zelené šipky přejdete na sousední mapy.


METAR-TAF: